createdAt,value
2018-06-01T00:00:50.147Z,24.33
2018-06-01T00:03:18.391Z,23.17
2018-06-01T00:05:45.985Z,22.33
2018-06-01T00:08:14.220Z,24.80
2018-06-01T00:10:41.691Z,28.07
2018-06-01T00:13:09.191Z,27.77
2018-06-01T00:15:36.686Z,26.83
2018-06-01T00:18:04.176Z,27.03
2018-06-01T00:20:31.704Z,25.53
2018-06-01T00:22:59.200Z,27.47
2018-06-01T00:25:27.532Z,28.30
2018-06-01T00:27:55.021Z,25.70
2018-06-01T00:30:22.491Z,25.43
2018-06-01T00:32:49.985Z,28.20
2018-06-01T00:35:17.465Z,28.17
2018-06-01T00:37:44.946Z,25.00
2018-06-01T00:40:12.434Z,26.70
2018-06-01T00:42:40.826Z,26.60
2018-06-01T00:45:08.332Z,34.13
2018-06-01T00:47:35.825Z,31.83
2018-06-01T00:50:04.179Z,29.97
2018-06-01T00:52:31.670Z,30.30
2018-06-01T00:55:11.912Z,34.07
2018-06-01T00:57:39.388Z,30.27
2018-06-01T01:00:07.657Z,31.60
2018-06-01T01:02:35.912Z,28.33
2018-06-01T01:05:03.403Z,29.73
2018-06-01T01:07:31.685Z,29.37
2018-06-01T01:09:59.925Z,29.50
2018-06-01T01:12:27.428Z,31.40
2018-06-01T01:14:54.912Z,33.20
2018-06-01T01:17:22.400Z,32.27
2018-06-01T01:19:49.872Z,32.17
2018-06-01T01:22:17.361Z,34.97
2018-06-01T01:24:44.851Z,32.27
2018-06-01T01:27:12.347Z,34.80
2018-06-01T01:29:39.816Z,30.83
2018-06-01T01:32:08.053Z,34.50
2018-06-01T01:34:35.548Z,34.53
2018-06-01T01:37:03.788Z,32.10
2018-06-01T01:39:31.277Z,40.07
2018-06-01T01:41:58.744Z,34.30
2018-06-01T01:44:26.999Z,38.97
2018-06-01T01:46:54.477Z,34.57
2018-06-01T01:49:22.732Z,37.80
2018-06-01T01:51:50.199Z,38.23
2018-06-01T01:54:17.691Z,39.43
2018-06-01T01:56:45.171Z,43.80
2018-06-01T01:59:12.648Z,41.40
2018-06-01T02:01:40.157Z,41.50
2018-06-01T02:04:07.672Z,38.37
2018-06-01T02:06:35.160Z,48.13
2018-06-01T02:09:03.398Z,40.40
2018-06-01T02:11:30.888Z,42.17
2018-06-01T02:13:58.361Z,45.13
2018-06-01T02:16:26.624Z,39.00
2018-06-01T02:18:54.097Z,43.33
2018-06-01T02:21:22.356Z,38.53
2018-06-01T02:23:49.845Z,39.17
2018-06-01T02:26:17.335Z,48.17
2018-06-01T02:28:44.817Z,44.73
2018-06-01T02:31:12.304Z,40.47
2018-06-01T02:33:40.559Z,35.93
2018-06-01T02:36:08.040Z,37.23
2018-06-01T02:38:36.300Z,44.87
2018-06-01T02:41:03.784Z,40.03
2018-06-01T02:43:32.023Z,44.63
2018-06-01T02:45:59.520Z,43.33
2018-06-01T02:48:27.760Z,41.13
2018-06-01T02:50:55.261Z,42.10
2018-06-01T02:53:22.751Z,38.13
2018-06-01T02:55:50.244Z,38.30
2018-06-01T02:58:17.729Z,41.03
2018-06-01T03:00:45.979Z,41.33
2018-06-01T03:03:13.460Z,39.60
2018-06-01T03:05:41.711Z,41.10
2018-06-01T03:08:09.281Z,36.77
2018-06-01T03:10:36.751Z,39.03
2018-06-01T03:13:05.015Z,41.00
2018-06-01T03:15:33.300Z,47.97
2018-06-01T03:18:01.557Z,39.30
2018-06-01T03:20:29.036Z,45.43
2018-06-01T03:22:57.287Z,43.10
2018-06-01T03:25:24.764Z,39.53
2018-06-01T03:27:52.235Z,39.23
2018-06-01T03:30:20.497Z,38.73
2018-06-01T03:32:47.970Z,38.57
2018-06-01T03:35:16.212Z,41.93
2018-06-01T03:37:43.693Z,43.37
2018-06-01T03:40:11.948Z,31.70
2018-06-01T03:42:39.433Z,13.23
2018-06-01T03:45:07.700Z,18.00
2018-06-01T03:47:35.167Z,20.03
2018-06-01T03:50:03.403Z,15.07
2018-06-01T03:52:30.894Z,11.53
2018-06-01T03:54:58.368Z,15.00
2018-06-01T03:57:26.623Z,17.67
2018-06-01T03:59:54.083Z,13.30
2018-06-01T04:02:21.583Z,14.57
2018-06-01T04:04:49.076Z,19.10
2018-06-01T04:07:16.580Z,22.80
2018-06-01T04:09:44.820Z,15.90
2018-06-01T04:12:12.295Z,14.83
2018-06-01T04:14:39.772Z,18.60
2018-06-01T04:17:08.016Z,21.70
2018-06-01T04:19:35.500Z,22.30
2018-06-01T04:22:04.740Z,25.00
2018-06-01T04:24:32.227Z,16.93
2018-06-01T04:26:59.705Z,17.73
2018-06-01T04:29:27.196Z,21.80
2018-06-01T04:31:54.684Z,21.63
2018-06-01T04:34:22.189Z,24.60
2018-06-01T04:36:50.444Z,24.03
2018-06-01T04:39:17.911Z,24.80
2018-06-01T04:41:45.396Z,22.07
2018-06-01T04:44:13.635Z,22.50
2018-06-01T04:46:41.120Z,31.77
2018-06-01T04:49:09.357Z,37.83
2018-06-01T04:51:36.855Z,33.03
2018-06-01T04:54:05.092Z,34.33
2018-06-01T04:56:32.565Z,41.50
2018-06-01T04:59:00.047Z,36.97
2018-06-01T05:01:28.296Z,38.83
2018-06-01T05:03:55.780Z,44.60
2018-06-01T05:06:24.024Z,50.90
2018-06-01T05:08:51.510Z,45.10
2018-06-01T05:11:19.765Z,41.23
2018-06-01T05:13:47.240Z,39.60
2018-06-01T05:16:14.723Z,30.00
2018-06-01T05:18:42.231Z,25.97
2018-06-01T05:21:09.744Z,27.37
2018-06-01T05:23:37.248Z,29.80
2018-06-01T05:26:04.747Z,26.57
2018-06-01T05:28:32.992Z,30.77
2018-06-01T05:31:00.475Z,31.10
2018-06-01T05:33:28.723Z,29.03
2018-06-01T05:35:56.200Z,30.07
2018-06-01T05:38:23.681Z,28.97
2018-06-01T05:40:51.924Z,30.73
2018-06-01T05:43:19.435Z,31.90
2018-06-01T05:45:46.912Z,37.13
2018-06-01T05:48:14.392Z,36.33
2018-06-01T05:50:41.884Z,32.10
2018-06-01T05:53:10.125Z,44.23
2018-06-01T05:55:37.609Z,42.07
2018-06-01T05:58:05.076Z,44.13
2018-06-01T06:00:33.399Z,47.20
2018-06-01T06:03:00.876Z,51.33
2018-06-01T06:05:29.149Z,64.37
2018-06-01T06:07:56.616Z,64.83
2018-06-01T06:10:24.084Z,68.00
2018-06-01T06:12:51.580Z,67.00
2018-06-01T06:15:19.067Z,76.23
2018-06-01T06:17:46.563Z,87.77
2018-06-01T06:20:14.024Z,90.47
2018-06-01T06:22:41.520Z,88.60
2018-06-01T06:25:09.007Z,97.40
2018-06-01T06:27:36.496Z,89.20
2018-06-01T06:30:03.971Z,95.53
2018-06-01T06:32:32.238Z,107.57
2018-06-01T06:34:59.708Z,95.00
2018-06-01T06:37:27.949Z,99.57
2018-06-01T06:39:55.473Z,92.87
2018-06-01T06:42:22.963Z,91.70
2018-06-01T06:44:50.459Z,95.50
2018-06-01T06:47:18.696Z,85.50
2018-06-01T06:49:46.207Z,82.80
2018-06-01T06:52:14.444Z,81.83
2018-06-01T06:54:41.914Z,80.03
2018-06-01T06:57:09.405Z,80.33
2018-06-01T06:59:36.913Z,79.03
2018-06-01T07:02:04.400Z,67.50
2018-06-01T07:04:32.636Z,65.47
2018-06-01T07:07:00.125Z,68.70
2018-06-01T07:09:28.371Z,67.50
2018-06-01T07:11:55.864Z,62.63
2018-06-01T07:14:24.105Z,57.80
2018-06-01T07:16:51.584Z,50.20
2018-06-01T07:19:19.068Z,49.63
2018-06-01T07:21:47.302Z,57.90
2018-06-01T07:24:14.784Z,54.77
2018-06-01T07:26:42.292Z,56.07
2018-06-01T07:29:09.782Z,50.63
2018-06-01T07:31:37.262Z,53.60
2018-06-01T07:34:04.748Z,51.67
2018-06-01T07:36:32.984Z,56.97
2018-06-01T07:39:00.461Z,49.77
2018-06-01T07:41:27.953Z,52.40
2018-06-01T07:43:55.440Z,50.50
2018-06-01T07:46:22.933Z,46.90
2018-06-01T07:48:50.407Z,51.80
2018-06-01T07:51:18.664Z,48.20
2018-06-01T07:53:46.139Z,52.47
2018-06-01T07:56:14.384Z,48.83
2018-06-01T07:58:41.858Z,42.33
2018-06-01T08:01:09.343Z,42.37
2018-06-01T08:03:37.602Z,42.03
2018-06-01T08:06:05.852Z,42.00
2018-06-01T08:08:33.392Z,45.20
2018-06-01T08:11:00.882Z,44.60
2018-06-01T08:13:29.892Z,45.83
2018-06-01T08:15:57.534Z,46.33
2018-06-01T08:18:25.023Z,40.83
2018-06-01T08:20:53.265Z,43.23
2018-06-01T08:23:20.752Z,43.33
2018-06-01T08:25:49.022Z,40.80
2018-06-01T08:28:17.265Z,41.50
2018-06-01T08:30:44.764Z,43.60
2018-06-01T08:33:12.998Z,47.50
2018-06-01T08:35:40.528Z,48.50
2018-06-01T08:38:08.010Z,44.63
2018-06-01T08:40:35.589Z,47.47
2018-06-01T08:43:03.852Z,51.47
2018-06-01T08:45:31.325Z,46.23
2018-06-01T08:47:58.808Z,46.50
2018-06-01T08:50:27.046Z,51.23
2018-06-01T08:52:54.538Z,51.40
2018-06-01T08:55:22.773Z,49.43
2018-06-01T08:57:50.255Z,56.40
2018-06-01T09:00:17.728Z,48.70
2018-06-01T09:02:45.997Z,50.30
2018-06-01T09:05:13.483Z,55.13
2018-06-01T09:07:40.971Z,54.77
2018-06-01T09:10:09.438Z,57.07
2018-06-01T09:12:36.844Z,52.40
2018-06-01T09:15:04.338Z,61.00
2018-06-01T09:17:32.631Z,53.90
2018-06-01T09:20:00.173Z,41.10
2018-06-01T09:22:28.408Z,42.50
2018-06-01T09:24:55.904Z,39.47
2018-06-01T09:27:24.147Z,34.70
2018-06-01T09:29:51.638Z,36.77
2018-06-01T09:32:19.941Z,40.57
2018-06-01T09:34:47.428Z,42.17
2018-06-01T09:37:14.917Z,44.43
2018-06-01T09:39:42.392Z,40.23
2018-06-01T09:42:09.982Z,45.93
2018-06-01T09:44:37.480Z,49.60
2018-06-01T09:47:05.781Z,40.43
2018-06-01T09:49:34.035Z,40.40
2018-06-01T09:52:01.538Z,42.23
2018-06-01T09:54:29.039Z,47.23
2018-06-01T09:56:56.528Z,48.77
2018-06-01T09:59:24.783Z,27.80
2018-06-01T10:01:52.280Z,35.03
2018-06-01T10:04:20.539Z,45.20
2018-06-01T10:06:48.015Z,60.77
2018-06-01T10:09:16.260Z,45.73
2018-06-01T10:11:43.765Z,36.00
2018-06-01T10:14:11.308Z,35.83
2018-06-01T10:16:39.561Z,39.83
2018-06-01T10:19:07.031Z,41.60
2018-06-01T10:21:35.300Z,47.17
2018-06-01T10:24:03.552Z,49.70
2018-06-01T10:26:31.151Z,39.43
2018-06-01T10:28:58.609Z,36.73
2018-06-01T10:31:26.867Z,38.47
2018-06-01T10:33:54.393Z,34.80
2018-06-01T10:36:21.881Z,31.40
2018-06-01T10:38:49.385Z,28.43
2018-06-01T10:41:16.868Z,27.63
2018-06-01T10:43:44.352Z,24.50
2018-06-01T10:46:11.843Z,25.60
2018-06-01T10:48:40.109Z,19.03
2018-06-01T10:51:08.448Z,18.93
2018-06-01T10:53:35.915Z,19.13
2018-06-01T10:56:03.404Z,32.87
2018-06-01T10:58:31.644Z,25.10
2018-06-01T11:00:59.140Z,15.30
2018-06-01T11:03:27.384Z,13.07
2018-06-01T11:05:54.871Z,11.87
2018-06-01T11:08:23.121Z,11.70
2018-06-01T11:10:50.628Z,11.20
2018-06-01T11:13:18.120Z,10.50
2018-06-01T11:15:45.597Z,17.80
2018-06-01T11:18:13.224Z,10.37
2018-06-01T11:20:40.705Z,11.23
2018-06-01T11:23:08.219Z,12.10
2018-06-01T11:25:35.698Z,13.03
2018-06-01T11:28:03.212Z,11.40
2018-06-01T11:30:30.691Z,12.33
2018-06-01T11:32:59.001Z,13.87
2018-06-01T11:35:26.480Z,11.00
2018-06-01T11:37:53.952Z,68.50
2018-06-01T11:40:21.433Z,10.03
2018-06-01T11:42:49.701Z,20.70
2018-06-01T11:45:17.211Z,7.97
2018-06-01T11:47:44.690Z,7.63
2018-06-01T11:50:12.176Z,6.37
2018-06-01T11:52:39.639Z,6.47
2018-06-01T11:55:07.896Z,6.80
2018-06-01T11:57:35.368Z,5.83
2018-06-01T12:00:02.838Z,6.00
2018-06-01T12:02:31.099Z,6.83
2018-06-01T12:04:58.567Z,6.50
2018-06-01T12:07:26.917Z,106.60
2018-06-01T12:09:54.388Z,6.90
2018-06-01T12:12:21.874Z,8.60
2018-06-01T12:14:50.106Z,8.37
2018-06-01T12:17:17.638Z,10.03
2018-06-01T12:19:45.128Z,10.53
2018-06-01T12:22:12.668Z,11.20
2018-06-01T12:24:40.152Z,10.37
2018-06-01T12:27:07.628Z,11.87
2018-06-01T12:29:35.950Z,215.73
2018-06-01T12:32:03.446Z,29.03
2018-06-01T12:34:30.938Z,9.67
2018-06-01T12:36:59.243Z,7.80
2018-06-01T12:39:26.764Z,5.60
2018-06-01T12:41:54.999Z,4.90
2018-06-01T12:44:22.468Z,5.80
2018-06-01T12:46:50.048Z,11.83
2018-06-01T12:49:17.528Z,3.80
2018-06-01T12:51:45.052Z,4.47
2018-06-01T12:54:12.528Z,5.13
2018-06-01T12:56:40.860Z,4.03
2018-06-01T12:59:08.331Z,3.97
2018-06-01T13:01:35.866Z,5.60
2018-06-01T13:04:03.351Z,4.03
2018-06-01T13:06:30.926Z,4.73
2018-06-01T13:08:58.463Z,5.30
2018-06-01T13:11:25.915Z,6.73
2018-06-01T13:13:53.407Z,6.33
2018-06-01T13:16:20.872Z,5.20
2018-06-01T13:18:48.413Z,5.27
2018-06-01T13:21:15.902Z,6.50
2018-06-01T13:23:44.160Z,5.53
2018-06-01T13:26:11.640Z,6.17
2018-06-01T13:28:39.938Z,5.80
2018-06-01T13:31:07.419Z,5.80
2018-06-01T13:33:34.946Z,6.27
2018-06-01T13:36:03.186Z,7.13
2018-06-01T13:38:30.667Z,18.73
2018-06-01T13:40:58.911Z,16.53
2018-06-01T13:43:26.387Z,20.43
2018-06-01T13:45:53.861Z,6.60
2018-06-01T13:48:22.100Z,7.30
2018-06-01T13:50:49.584Z,30.43
2018-06-01T13:53:17.839Z,17.40
2018-06-01T13:55:45.320Z,8.63
2018-06-01T13:58:12.783Z,8.43
2018-06-01T14:00:41.040Z,10.03
2018-06-01T14:03:08.561Z,9.17
2018-06-01T14:05:36.196Z,10.93
2018-06-01T14:08:04.458Z,14.90
2018-06-01T14:10:32.692Z,7.63
2018-06-01T14:13:00.164Z,7.60
2018-06-01T14:15:27.648Z,8.17
2018-06-01T14:17:55.123Z,7.60
2018-06-01T14:20:23.364Z,8.80
2018-06-01T14:22:50.842Z,9.27
2018-06-01T14:25:19.115Z,60.90
2018-06-01T14:27:46.616Z,9.50
2018-06-01T14:30:14.080Z,9.13
2018-06-01T14:32:41.648Z,8.07
2018-06-01T14:35:09.141Z,8.77
2018-06-01T14:37:36.603Z,9.30
2018-06-01T14:40:04.202Z,8.00
2018-06-01T14:42:31.688Z,6.80
2018-06-01T14:44:59.203Z,7.00
2018-06-01T14:47:27.429Z,6.93
2018-06-01T14:49:54.924Z,7.30
2018-06-01T14:52:22.399Z,8.20
2018-06-01T14:54:50.639Z,8.13
2018-06-01T14:57:18.112Z,7.10
2018-06-01T14:59:45.574Z,8.13
2018-06-01T15:02:13.827Z,7.50
2018-06-01T15:04:41.303Z,8.17
2018-06-01T15:07:08.796Z,9.33
2018-06-01T15:09:36.290Z,8.23
2018-06-01T15:12:03.830Z,10.03
2018-06-01T15:14:31.312Z,10.00
2018-06-01T15:16:58.788Z,11.17
2018-06-01T15:19:26.298Z,12.50
2018-06-01T15:21:53.841Z,11.77
2018-06-01T15:24:22.098Z,11.70
2018-06-01T15:26:49.588Z,12.13
2018-06-01T15:29:17.079Z,23.77
2018-06-01T15:31:44.573Z,11.73
2018-06-01T15:34:13.676Z,12.83
2018-06-01T15:36:42.537Z,20.80
2018-06-01T15:39:10.304Z,11.43
2018-06-01T15:41:38.386Z,10.90
2018-06-01T15:44:06.009Z,10.47
2018-06-01T15:46:33.904Z,11.03
2018-06-01T15:49:02.183Z,10.00
2018-06-01T15:51:30.374Z,10.90
2018-06-01T15:53:59.235Z,10.67
2018-06-01T15:56:26.860Z,9.50
2018-06-01T15:58:54.737Z,8.80
2018-06-01T16:01:22.576Z,8.17
2018-06-01T16:03:50.822Z,7.97
2018-06-01T16:06:19.099Z,8.00
2018-06-01T16:08:46.577Z,8.13
2018-06-01T16:11:14.812Z,6.93
2018-06-01T16:13:42.401Z,8.23
2018-06-01T16:16:09.872Z,7.10
2018-06-01T16:18:37.365Z,6.77
2018-06-01T16:21:04.852Z,8.00
2018-06-01T16:23:32.345Z,6.53
2018-06-01T16:26:00.671Z,6.60
2018-06-01T16:28:28.158Z,7.93
2018-06-01T16:30:55.643Z,8.80
2018-06-01T16:33:23.112Z,7.00
2018-06-01T16:35:51.393Z,12.60
2018-06-01T16:38:19.678Z,7.30
2018-06-01T16:40:47.256Z,8.33
2018-06-01T16:43:14.738Z,8.57
2018-06-01T16:45:42.268Z,8.00
2018-06-01T16:48:09.805Z,8.57
2018-06-01T16:50:37.338Z,8.53
2018-06-01T16:53:04.816Z,9.23
2018-06-01T16:55:33.072Z,10.13
2018-06-01T16:58:02.079Z,9.53
2018-06-01T17:00:29.551Z,10.73
2018-06-01T17:02:57.802Z,10.77
2018-06-01T17:05:25.368Z,19.97
2018-06-01T17:07:53.724Z,11.93
2018-06-01T17:10:21.372Z,10.90
2018-06-01T17:12:48.869Z,12.27
2018-06-01T17:15:16.505Z,20.27
2018-06-01T17:17:44.096Z,13.13
2018-06-01T17:20:12.544Z,17.93
2018-06-01T17:22:40.093Z,13.47
2018-06-01T17:25:07.628Z,17.10
2018-06-01T17:27:35.216Z,15.17
2018-06-01T17:30:02.728Z,16.37
2018-06-01T17:32:31.088Z,24.23
2018-06-01T17:34:58.635Z,20.00
2018-06-01T17:37:26.915Z,21.90
2018-06-01T17:39:54.457Z,20.90
2018-06-01T17:42:21.961Z,27.47
2018-06-01T17:44:50.244Z,28.40
2018-06-01T17:47:18.499Z,38.43
2018-06-01T17:49:45.979Z,35.53
2018-06-01T17:52:14.339Z,40.33
2018-06-01T17:54:42.672Z,44.97
2018-06-01T17:57:10.222Z,38.80
2018-06-01T17:59:37.883Z,46.13
2018-06-01T18:02:06.727Z,39.83
2018-06-01T18:04:34.989Z,45.70
2018-06-01T18:07:02.484Z,46.90
2018-06-01T18:09:30.847Z,50.10
2018-06-01T18:11:59.097Z,51.03
2018-06-01T18:14:26.630Z,100.17
2018-06-01T18:16:54.119Z,55.67
2018-06-01T18:19:21.655Z,55.63
2018-06-01T18:21:49.208Z,48.00
2018-06-01T18:24:16.808Z,63.13
2018-06-01T18:26:44.414Z,51.53
2018-06-01T18:29:11.960Z,53.17
2018-06-01T18:31:39.564Z,55.07
2018-06-01T18:34:07.049Z,49.77
2018-06-01T18:36:34.550Z,52.70
2018-06-01T18:39:02.052Z,47.10
2018-06-01T18:41:29.539Z,49.20
2018-06-01T18:43:57.852Z,45.10
2018-06-01T18:46:25.433Z,43.60
2018-06-01T18:48:52.936Z,62.60
2018-06-01T18:51:21.220Z,44.87
2018-06-01T18:53:49.552Z,39.30
2018-06-01T18:56:17.044Z,38.80
2018-06-01T18:58:44.584Z,38.77
2018-06-01T19:01:12.074Z,41.07
2018-06-01T19:03:40.339Z,43.23
2018-06-01T19:06:07.850Z,37.67
2018-06-01T19:08:35.329Z,35.30
2018-06-01T19:11:02.815Z,42.73
2018-06-01T19:13:30.315Z,34.93
2018-06-01T19:15:57.797Z,35.70
2018-06-01T19:18:25.324Z,39.00
2018-06-01T19:20:52.814Z,44.70
2018-06-01T19:23:20.334Z,45.57
2018-06-01T19:25:48.584Z,50.60
2018-06-01T19:28:16.088Z,52.17
2018-06-01T19:30:43.642Z,50.67
2018-06-01T19:33:11.136Z,48.90
2018-06-01T19:35:38.620Z,55.33
2018-06-01T19:38:06.112Z,52.27
2018-06-01T19:40:33.608Z,48.30
2018-06-01T19:43:01.113Z,52.40
2018-06-01T19:45:29.375Z,58.03
2018-06-01T19:47:57.620Z,53.00
2018-06-01T19:50:25.115Z,58.40
2018-06-01T19:52:53.394Z,65.23
2018-06-01T19:55:21.720Z,67.07
2018-06-01T19:57:49.188Z,71.10
2018-06-01T20:00:16.690Z,63.30
2018-06-01T20:02:44.964Z,68.37
2018-06-01T20:05:13.208Z,60.87
2018-06-01T20:07:40.738Z,69.93
2018-06-01T20:10:08.211Z,64.73
2018-06-01T20:12:35.708Z,64.97
2018-06-01T20:15:03.192Z,59.27
2018-06-01T20:17:30.716Z,61.53
2018-06-01T20:19:58.332Z,56.67
2018-06-01T20:22:25.811Z,63.10
2018-06-01T20:24:53.295Z,59.63
2018-06-01T20:27:20.828Z,58.57
2018-06-01T20:29:48.371Z,56.83
2018-06-01T20:32:16.752Z,59.57
2018-06-01T20:34:44.308Z,57.53
2018-06-01T20:37:11.818Z,60.30
2018-06-01T20:39:39.361Z,59.97
2018-06-01T20:42:06.847Z,62.13
2018-06-01T20:44:35.084Z,59.63
2018-06-01T20:47:02.571Z,57.27
2018-06-01T20:49:30.044Z,62.17
2018-06-01T20:51:58.369Z,63.83
2018-06-01T20:54:25.856Z,62.00
2018-06-01T20:56:53.479Z,63.20
2018-06-01T20:59:20.971Z,69.30
2018-06-01T21:01:48.460Z,55.20
2018-06-01T21:04:16.741Z,70.00
2018-06-01T21:06:44.988Z,62.67
2018-06-01T21:09:12.478Z,68.60
2018-06-01T21:11:40.916Z,63.90
2018-06-01T21:14:08.445Z,73.60
2018-06-01T21:16:35.992Z,67.83
2018-06-01T21:19:03.492Z,73.13
2018-06-01T21:21:31.047Z,79.60
2018-06-01T21:23:58.704Z,63.33
2018-06-01T21:26:26.226Z,74.10
2018-06-01T21:28:53.764Z,67.70
2018-06-01T21:31:21.301Z,62.70
2018-06-01T21:33:48.858Z,70.40
2018-06-01T21:36:16.352Z,69.37
2018-06-01T21:38:44.604Z,65.07
2018-06-01T21:41:12.120Z,65.07
2018-06-01T21:43:40.599Z,67.90
2018-06-01T21:46:08.098Z,63.23
2018-06-01T21:48:35.593Z,67.60
2018-06-01T21:51:03.888Z,62.00
2018-06-01T21:53:32.256Z,64.87
2018-06-01T21:56:00.507Z,62.50
2018-06-01T21:58:28.042Z,63.03
2018-06-01T22:00:55.544Z,63.83
2018-06-01T22:03:23.830Z,64.43
2018-06-01T22:05:51.326Z,68.17
2018-06-01T22:08:18.868Z,63.77
2018-06-01T22:10:46.349Z,64.67
2018-06-01T22:13:13.831Z,64.50
2018-06-01T22:15:41.315Z,64.77
2018-06-01T22:18:09.581Z,62.17
2018-06-01T22:20:37.831Z,59.03
2018-06-01T22:23:05.309Z,69.07
2018-06-01T22:25:32.809Z,60.60
2018-06-01T22:28:00.280Z,64.10
2018-06-01T22:30:27.787Z,69.33
2018-06-01T22:32:56.043Z,60.17
2018-06-01T22:35:23.648Z,66.27
2018-06-01T22:37:51.204Z,65.10
2018-06-01T22:40:19.517Z,65.83
2018-06-01T22:42:47.009Z,73.77
2018-06-01T22:45:14.479Z,65.10
2018-06-01T22:47:42.764Z,72.63
2018-06-01T22:50:11.069Z,68.67
2018-06-01T22:52:38.560Z,74.00
2018-06-01T22:55:06.032Z,73.13
2018-06-01T22:57:33.507Z,75.63
2018-06-01T23:00:01.760Z,73.50
2018-06-01T23:02:29.248Z,73.97
2018-06-01T23:04:57.500Z,74.67
2018-06-01T23:07:24.968Z,77.70
2018-06-01T23:09:52.492Z,80.63
2018-06-01T23:12:19.979Z,81.40
2018-06-01T23:14:47.456Z,76.63
2018-06-01T23:17:15.707Z,81.03
2018-06-01T23:19:43.239Z,83.90
2018-06-01T23:22:11.459Z,83.80
2018-06-01T23:24:38.961Z,87.13
2018-06-01T23:27:06.456Z,90.80
2018-06-01T23:29:33.920Z,93.60
2018-06-01T23:32:01.396Z,95.63
2018-06-01T23:34:29.647Z,97.30
2018-06-01T23:36:57.163Z,91.30
2018-06-01T23:39:24.668Z,103.47
2018-06-01T23:41:52.149Z,101.17
2018-06-01T23:44:20.413Z,98.30
2018-06-01T23:46:47.884Z,98.13
2018-06-01T23:49:16.136Z,102.80
2018-06-01T23:51:43.633Z,105.22
2018-06-01T23:54:11.121Z,99.10
2018-06-01T23:56:38.612Z,93.00
2018-06-01T23:59:06.096Z,105.73
